createdAt,value
2022-08-29T00:00:45.206Z,1013.67
2022-08-29T00:01:45.361Z,1013.64
2022-08-29T00:02:45.195Z,1013.68
2022-08-29T00:03:45.212Z,1013.63
2022-08-29T00:04:45.199Z,1013.69
2022-08-29T00:05:45.204Z,1013.66
2022-08-29T00:06:45.214Z,1013.67
2022-08-29T00:07:45.197Z,1013.67
2022-08-29T00:08:45.193Z,1013.68
2022-08-29T00:09:45.203Z,1013.67
2022-08-29T00:10:45.207Z,1013.65
2022-08-29T00:11:46.623Z,1013.63
2022-08-29T00:12:45.235Z,1013.67
2022-08-29T00:13:45.221Z,1013.64
2022-08-29T00:14:45.340Z,1013.61
2022-08-29T00:15:45.462Z,1013.62
2022-08-29T00:16:45.237Z,1013.61
2022-08-29T00:17:45.211Z,1013.60
2022-08-29T00:18:45.245Z,1013.64
2022-08-29T00:19:45.228Z,1013.63
2022-08-29T00:20:45.228Z,1013.63
2022-08-29T00:21:45.245Z,1013.62
2022-08-29T00:22:45.220Z,1013.63
2022-08-29T00:23:45.229Z,1013.66
2022-08-29T00:24:45.255Z,1013.62
2022-08-29T00:25:45.223Z,1013.61
2022-08-29T00:26:45.286Z,1013.65
2022-08-29T00:27:45.270Z,1013.65
2022-08-29T00:28:45.251Z,1013.64
2022-08-29T00:29:45.251Z,1013.64
2022-08-29T00:30:45.231Z,1013.65
2022-08-29T00:31:45.380Z,1013.61
2022-08-29T00:32:45.269Z,1013.67
2022-08-29T00:33:45.238Z,1013.63
2022-08-29T00:34:45.254Z,1013.60
2022-08-29T00:35:45.266Z,1013.59
2022-08-29T00:36:49.081Z,1013.62
2022-08-29T00:37:45.254Z,1013.63
2022-08-29T00:38:45.295Z,1013.61
2022-08-29T00:39:45.265Z,1013.60
2022-08-29T00:40:51.097Z,1013.61
2022-08-29T00:41:45.335Z,1013.62
2022-08-29T00:42:45.280Z,1013.57
2022-08-29T00:43:45.263Z,1013.59
2022-08-29T00:44:45.273Z,1013.60
2022-08-29T00:45:45.349Z,1013.57
2022-08-29T00:46:45.291Z,1013.58
2022-08-29T00:47:45.280Z,1013.60
2022-08-29T00:48:45.285Z,1013.58
2022-08-29T00:49:45.286Z,1013.62
2022-08-29T00:50:45.286Z,1013.64
2022-08-29T00:51:45.285Z,1013.60
2022-08-29T00:52:45.308Z,1013.61
2022-08-29T00:53:45.313Z,1013.59
2022-08-29T00:54:45.293Z,1013.66
2022-08-29T00:55:50.573Z,1013.68
2022-08-29T00:56:45.293Z,1013.61
2022-08-29T00:57:45.289Z,1013.61
2022-08-29T00:58:45.296Z,1013.66
2022-08-29T00:59:45.309Z,1013.67
2022-08-29T01:00:45.336Z,1013.66
2022-08-29T01:01:45.345Z,1013.64
2022-08-29T01:02:45.327Z,1013.58
2022-08-29T01:03:45.299Z,1013.63
2022-08-29T01:04:45.322Z,1013.62
2022-08-29T01:05:45.301Z,1013.61
2022-08-29T01:06:45.294Z,1013.60
2022-08-29T01:07:45.308Z,1013.62
2022-08-29T01:08:45.306Z,1013.63
2022-08-29T01:09:45.317Z,1013.62
2022-08-29T01:10:45.350Z,1013.66
2022-08-29T01:11:45.319Z,1013.67
2022-08-29T01:12:45.307Z,1013.66
2022-08-29T01:13:45.335Z,1013.68
2022-08-29T01:14:45.341Z,1013.70
2022-08-29T01:15:45.336Z,1013.70
2022-08-29T01:16:45.376Z,1013.72
2022-08-29T01:17:45.320Z,1013.71
2022-08-29T01:20:28.370Z,1013.78
2022-08-29T01:21:28.363Z,1013.76
2022-08-29T01:22:28.387Z,1013.80
2022-08-29T01:23:28.365Z,1013.75
2022-08-29T01:24:28.380Z,1013.77
2022-08-29T01:25:28.398Z,1013.78
2022-08-29T01:26:28.383Z,1013.79
2022-08-29T01:27:28.374Z,1013.83
2022-08-29T01:28:28.383Z,1013.82
2022-08-29T01:29:28.384Z,1013.80
2022-08-29T01:30:28.376Z,1013.82
2022-08-29T01:31:37.736Z,1013.83
2022-08-29T01:32:28.407Z,1013.85
2022-08-29T01:33:28.378Z,1013.89
2022-08-29T01:34:28.393Z,1013.86
2022-08-29T01:35:28.380Z,1013.88
2022-08-29T01:36:28.388Z,1013.92
2022-08-29T01:37:28.406Z,1013.88
2022-08-29T01:38:28.380Z,1013.92
2022-08-29T01:39:28.381Z,1013.92
2022-08-29T01:40:28.492Z,1013.92
2022-08-29T01:41:28.391Z,1013.87
2022-08-29T01:42:28.424Z,1013.91
2022-08-29T01:43:28.397Z,1013.89
2022-08-29T01:44:28.395Z,1013.88
2022-08-29T01:45:28.428Z,1013.97
2022-08-29T01:46:28.412Z,1013.94
2022-08-29T01:47:28.408Z,1013.94
2022-08-29T01:48:28.423Z,1013.92
2022-08-29T01:49:28.420Z,1013.97
2022-08-29T01:50:28.423Z,1013.92
2022-08-29T01:51:28.410Z,1013.97
2022-08-29T01:52:28.414Z,1013.98
2022-08-29T01:53:28.427Z,1013.99
2022-08-29T01:54:28.474Z,1014.00
2022-08-29T01:55:28.415Z,1013.97
2022-08-29T01:56:28.426Z,1013.95
2022-08-29T01:57:28.422Z,1013.96
2022-08-29T01:58:28.431Z,1013.95
2022-08-29T01:59:28.426Z,1013.95
2022-08-29T02:00:28.459Z,1013.96
2022-08-29T02:01:28.508Z,1013.96
2022-08-29T02:02:28.472Z,1013.96
2022-08-29T02:03:28.446Z,1013.96
2022-08-29T02:04:28.436Z,1013.97
2022-08-29T02:05:28.442Z,1014.00
2022-08-29T02:06:28.448Z,1014.02
2022-08-29T02:07:28.450Z,1014.02
2022-08-29T02:08:28.452Z,1013.98
2022-08-29T02:09:28.464Z,1014.00
2022-08-29T02:10:28.437Z,1014.03
2022-08-29T02:11:28.456Z,1013.97
2022-08-29T02:12:28.456Z,1014.01
2022-08-29T02:13:28.460Z,1013.99
2022-08-29T02:14:28.471Z,1013.94
2022-08-29T02:15:28.448Z,1013.91
2022-08-29T02:16:28.618Z,1013.91
2022-08-29T02:17:28.464Z,1013.93
2022-08-29T02:18:28.467Z,1013.93
2022-08-29T02:19:28.496Z,1013.91
2022-08-29T02:20:28.459Z,1013.91
2022-08-29T02:21:28.478Z,1013.90
2022-08-29T02:22:28.476Z,1013.95
2022-08-29T02:23:31.208Z,1013.96
2022-08-29T02:24:28.466Z,1013.96
2022-08-29T02:25:28.491Z,1013.93
2022-08-29T02:26:28.475Z,1013.95
2022-08-29T02:27:28.479Z,1013.95
2022-08-29T02:28:28.480Z,1013.95
2022-08-29T02:29:37.080Z,1013.92
2022-08-29T02:30:28.478Z,1013.97
2022-08-29T02:31:28.638Z,1013.91
2022-08-29T02:32:28.488Z,1013.92
2022-08-29T02:33:29.047Z,1013.94
2022-08-29T02:34:28.474Z,1013.93
2022-08-29T02:35:28.483Z,1013.96
2022-08-29T02:36:28.496Z,1013.93
2022-08-29T02:37:28.501Z,1013.91
2022-08-29T02:38:28.487Z,1013.89
2022-08-29T02:39:28.492Z,1013.85
2022-08-29T02:40:31.695Z,1013.85
2022-08-29T02:41:28.490Z,1013.86
2022-08-29T02:42:28.488Z,1013.86
2022-08-29T02:43:28.511Z,1013.87
2022-08-29T02:44:28.496Z,1013.92
2022-08-29T02:45:28.501Z,1013.89
2022-08-29T02:46:28.577Z,1013.97
2022-08-29T02:47:28.508Z,1013.96
2022-08-29T02:48:28.502Z,1013.96
2022-08-29T02:49:28.501Z,1013.99
2022-08-29T02:50:28.536Z,1013.94
2022-08-29T02:51:28.500Z,1013.95
2022-08-29T02:52:28.511Z,1014.01
2022-08-29T02:53:28.510Z,1013.99
2022-08-29T02:54:28.515Z,1014.02
2022-08-29T02:55:28.512Z,1013.99
2022-08-29T02:56:28.537Z,1013.99
2022-08-29T02:57:28.515Z,1013.98
2022-08-29T02:58:28.519Z,1013.99
2022-08-29T02:59:28.523Z,1013.96
2022-08-29T03:00:28.556Z,1014.01
2022-08-29T03:01:28.584Z,1013.93
2022-08-29T03:02:28.541Z,1014.00
2022-08-29T03:03:28.527Z,1014.00
2022-08-29T03:04:28.548Z,1014.02
2022-08-29T03:05:28.549Z,1014.02
2022-08-29T03:06:28.523Z,1014.00
2022-08-29T03:07:28.538Z,1013.98
2022-08-29T03:08:28.546Z,1013.99
2022-08-29T03:09:28.560Z,1014.02
2022-08-29T03:10:28.561Z,1014.03
2022-08-29T03:11:28.531Z,1013.96
2022-08-29T03:12:28.525Z,1014.01
2022-08-29T03:13:28.542Z,1013.98
2022-08-29T03:14:28.554Z,1014.03
2022-08-29T03:15:28.547Z,1013.95
2022-08-29T03:16:28.573Z,1014.01
2022-08-29T03:17:28.530Z,1013.95
2022-08-29T03:18:28.538Z,1013.94
2022-08-29T03:19:28.590Z,1014.04
2022-08-29T03:20:28.554Z,1014.08
2022-08-29T03:21:28.597Z,1014.04
2022-08-29T03:22:28.555Z,1014.05
2022-08-29T03:23:28.540Z,1014.06
2022-08-29T03:24:28.548Z,1014.08
2022-08-29T03:25:28.557Z,1014.07
2022-08-29T03:26:28.564Z,1014.02
2022-08-29T03:27:28.556Z,1014.08
2022-08-29T03:28:28.554Z,1014.08
2022-08-29T03:29:28.593Z,1014.08
2022-08-29T03:30:28.559Z,1014.02
2022-08-29T03:31:28.607Z,1014.04
2022-08-29T03:32:28.566Z,1014.00
2022-08-29T03:33:28.563Z,1013.98
2022-08-29T03:34:28.563Z,1013.99
2022-08-29T03:35:28.555Z,1013.98
2022-08-29T03:36:28.573Z,1013.97
2022-08-29T03:37:28.580Z,1014.00
2022-08-29T03:38:28.591Z,1013.95
2022-08-29T03:39:28.563Z,1013.90
2022-08-29T03:40:28.672Z,1013.84
2022-08-29T03:41:28.574Z,1013.87
2022-08-29T03:42:28.590Z,1013.88
2022-08-29T03:43:28.589Z,1013.87
2022-08-29T03:44:28.595Z,1013.86
2022-08-29T03:45:28.575Z,1013.87
2022-08-29T03:46:28.643Z,1013.93
2022-08-29T03:47:28.578Z,1013.90
2022-08-29T03:48:28.580Z,1013.94
2022-08-29T03:49:28.594Z,1013.94
2022-08-29T03:50:28.572Z,1013.91
2022-08-29T03:51:29.437Z,1013.94
2022-08-29T03:52:28.575Z,1013.97
2022-08-29T03:53:28.618Z,1013.98
2022-08-29T03:54:28.590Z,1013.94
2022-08-29T03:55:28.622Z,1013.92
2022-08-29T03:56:29.563Z,1013.97
2022-08-29T03:57:28.590Z,1013.94
2022-08-29T03:58:28.606Z,1013.93
2022-08-29T03:59:28.618Z,1013.92
2022-08-29T04:00:28.618Z,1013.96
2022-08-29T04:01:28.685Z,1013.92
2022-08-29T04:02:28.702Z,1013.98
2022-08-29T04:03:31.487Z,1013.97
2022-08-29T04:04:28.614Z,1013.97
2022-08-29T04:05:28.651Z,1013.98
2022-08-29T04:06:28.641Z,1013.96
2022-08-29T04:07:28.594Z,1013.97
2022-08-29T04:08:28.625Z,1013.98
2022-08-29T04:09:28.607Z,1013.96
2022-08-29T04:10:28.619Z,1013.95
2022-08-29T04:11:28.633Z,1013.94
2022-08-29T04:12:28.622Z,1013.91
2022-08-29T04:13:28.619Z,1013.97
2022-08-29T04:14:28.647Z,1013.94
2022-08-29T04:15:28.642Z,1013.93
2022-08-29T04:16:30.531Z,1013.91
2022-08-29T04:17:28.628Z,1013.93
2022-08-29T04:18:28.624Z,1013.95
2022-08-29T04:19:28.613Z,1013.91
2022-08-29T04:20:28.647Z,1013.91
2022-08-29T04:21:28.649Z,1013.94
2022-08-29T04:22:28.622Z,1013.91
2022-08-29T04:23:28.614Z,1013.95
2022-08-29T04:24:28.618Z,1013.94
2022-08-29T04:25:28.631Z,1013.98
2022-08-29T04:26:37.472Z,1013.98
2022-08-29T04:27:28.619Z,1014.01
2022-08-29T04:28:28.629Z,1014.04
2022-08-29T04:29:28.632Z,1014.03
2022-08-29T04:30:28.640Z,1014.05
2022-08-29T04:31:28.748Z,1014.03
2022-08-29T04:32:28.643Z,1014.05
2022-08-29T04:33:28.637Z,1014.04
2022-08-29T04:34:28.636Z,1014.06
2022-08-29T04:35:28.643Z,1014.06
2022-08-29T04:36:28.651Z,1014.06
2022-08-29T04:37:28.637Z,1014.05
2022-08-29T04:38:28.667Z,1014.06
2022-08-29T04:39:28.631Z,1014.03
2022-08-29T04:40:28.719Z,1014.05
2022-08-29T04:41:28.639Z,1014.11
2022-08-29T04:42:28.646Z,1014.02
2022-08-29T04:43:28.650Z,1014.04
2022-08-29T04:44:28.661Z,1014.07
2022-08-29T04:45:28.636Z,1014.06
2022-08-29T04:46:28.683Z,1014.08
2022-08-29T04:47:28.658Z,1014.06
2022-08-29T04:48:28.667Z,1014.07
2022-08-29T04:49:28.677Z,1014.07
2022-08-29T04:50:28.647Z,1014.11
2022-08-29T04:51:28.664Z,1014.14
2022-08-29T04:52:28.667Z,1014.12
2022-08-29T04:53:28.668Z,1014.16
2022-08-29T04:54:28.677Z,1014.08
2022-08-29T04:55:28.685Z,1014.13
2022-08-29T04:56:28.651Z,1014.14
2022-08-29T04:57:28.654Z,1014.12
2022-08-29T04:58:28.664Z,1014.12
2022-08-29T04:59:28.693Z,1014.12
2022-08-29T05:00:28.724Z,1014.08
2022-08-29T05:01:28.693Z,1014.10
2022-08-29T05:04:39.083Z,1014.10
2022-08-29T05:05:39.088Z,1014.08
2022-08-29T05:06:39.108Z,1014.17
2022-08-29T05:07:39.859Z,1014.16
2022-08-29T05:08:39.068Z,1014.12
2022-08-29T05:09:39.921Z,1014.15
2022-08-29T05:10:39.943Z,1014.16
2022-08-29T05:11:39.116Z,1014.16
2022-08-29T05:12:40.050Z,1014.16
2022-08-29T05:13:40.073Z,1014.14
2022-08-29T05:14:39.607Z,1014.13
2022-08-29T05:15:39.666Z,1014.19
2022-08-29T05:16:39.107Z,1014.16
2022-08-29T05:17:39.716Z,1014.19
2022-08-29T05:18:40.745Z,1014.20
2022-08-29T05:19:42.865Z,1014.22
2022-08-29T05:20:31.538Z,1014.23
2022-08-29T05:21:31.554Z,1014.25
2022-08-29T05:22:31.554Z,1014.25
2022-08-29T05:23:31.539Z,1014.30
2022-08-29T05:24:31.551Z,1014.27
2022-08-29T05:25:31.545Z,1014.31
2022-08-29T05:26:31.545Z,1014.27
2022-08-29T05:27:31.560Z,1014.28
2022-08-29T05:28:31.539Z,1014.26
2022-08-29T05:29:31.547Z,1014.29
2022-08-29T05:30:34.532Z,1014.30
2022-08-29T05:31:31.667Z,1014.37
2022-08-29T05:32:31.548Z,1014.40
2022-08-29T05:33:31.537Z,1014.40
2022-08-29T05:34:34.330Z,1014.44
2022-08-29T05:35:31.556Z,1014.42
2022-08-29T05:36:31.572Z,1014.47
2022-08-29T05:37:31.546Z,1014.41
2022-08-29T05:38:31.587Z,1014.44
2022-08-29T05:39:31.573Z,1014.40
2022-08-29T05:40:31.583Z,1014.42
2022-08-29T05:41:31.569Z,1014.44
2022-08-29T05:42:31.561Z,1014.41
2022-08-29T05:43:31.558Z,1014.40
2022-08-29T05:44:34.964Z,1014.34
2022-08-29T05:45:31.548Z,1014.36
2022-08-29T05:46:31.614Z,1014.37
2022-08-29T05:47:31.563Z,1014.35
2022-08-29T05:48:31.564Z,1014.39
2022-08-29T05:49:31.587Z,1014.36
2022-08-29T05:50:31.571Z,1014.39
2022-08-29T05:51:34.884Z,1014.39
2022-08-29T05:52:31.567Z,1014.40
2022-08-29T05:53:31.582Z,1014.39
2022-08-29T05:54:31.588Z,1014.38
2022-08-29T05:55:31.559Z,1014.40
2022-08-29T05:56:31.601Z,1014.41
2022-08-29T05:57:31.603Z,1014.41
2022-08-29T05:58:31.582Z,1014.38
2022-08-29T05:59:31.587Z,1014.36
2022-08-29T06:00:31.595Z,1014.34
2022-08-29T06:01:32.658Z,1014.38
2022-08-29T06:02:31.722Z,1014.34
2022-08-29T06:03:31.798Z,1014.37
2022-08-29T06:04:31.582Z,1014.40
2022-08-29T06:05:31.590Z,1014.36
2022-08-29T06:06:31.586Z,1014.37
2022-08-29T06:07:31.577Z,1014.33
2022-08-29T06:08:31.611Z,1014.38
2022-08-29T06:09:31.591Z,1014.38
2022-08-29T06:10:31.593Z,1014.36
2022-08-29T06:11:31.593Z,1014.39
2022-08-29T06:12:31.584Z,1014.37
2022-08-29T06:13:31.599Z,1014.38
2022-08-29T06:14:31.589Z,1014.36
2022-08-29T06:15:31.643Z,1014.40
2022-08-29T06:16:31.604Z,1014.44
2022-08-29T06:17:31.598Z,1014.40
2022-08-29T06:18:35.940Z,1014.43
2022-08-29T06:19:31.605Z,1014.41
2022-08-29T06:20:31.641Z,1014.44
2022-08-29T06:21:31.603Z,1014.46
2022-08-29T06:22:31.609Z,1014.48
2022-08-29T06:23:31.640Z,1014.47
2022-08-29T06:24:31.600Z,1014.48
2022-08-29T06:25:39.480Z,1014.52
2022-08-29T06:26:31.605Z,1014.58
2022-08-29T06:27:31.612Z,1014.56
2022-08-29T06:28:31.609Z,1014.59
2022-08-29T06:29:31.630Z,1014.63
2022-08-29T06:30:31.637Z,1014.66
2022-08-29T06:31:31.737Z,1014.63
2022-08-29T06:32:31.622Z,1014.65
2022-08-29T06:33:31.622Z,1014.64
2022-08-29T06:34:31.647Z,1014.69
2022-08-29T06:35:31.625Z,1014.68
2022-08-29T06:36:31.666Z,1014.62
2022-08-29T06:37:31.650Z,1014.63
2022-08-29T06:38:31.662Z,1014.70
2022-08-29T06:39:31.634Z,1014.66
2022-08-29T06:40:31.710Z,1014.64
2022-08-29T06:41:31.625Z,1014.63
2022-08-29T06:42:31.657Z,1014.65
2022-08-29T06:43:31.651Z,1014.66
2022-08-29T06:44:31.639Z,1014.67
2022-08-29T06:45:31.648Z,1014.71
2022-08-29T06:46:31.764Z,1014.73
2022-08-29T06:47:31.654Z,1014.69
2022-08-29T06:48:31.656Z,1014.69
2022-08-29T06:49:31.643Z,1014.74
2022-08-29T06:50:31.655Z,1014.75
2022-08-29T06:51:31.677Z,1014.74
2022-08-29T06:52:31.689Z,1014.75
2022-08-29T06:53:32.785Z,1014.78
2022-08-29T06:54:31.653Z,1014.74
2022-08-29T06:55:31.648Z,1014.78
2022-08-29T06:56:31.657Z,1014.74
2022-08-29T06:57:31.649Z,1014.76
2022-08-29T06:58:31.660Z,1014.79
2022-08-29T06:59:31.669Z,1014.80
2022-08-29T07:00:31.664Z,1014.82
2022-08-29T07:01:31.773Z,1014.80
2022-08-29T07:02:31.695Z,1014.79
2022-08-29T07:03:31.682Z,1014.80
2022-08-29T07:04:31.671Z,1014.78
2022-08-29T07:05:31.686Z,1014.81
2022-08-29T07:06:31.700Z,1014.79
2022-08-29T07:07:31.674Z,1014.79
2022-08-29T07:08:31.716Z,1014.80
2022-08-29T07:09:31.679Z,1014.83
2022-08-29T07:10:31.685Z,1014.84
2022-08-29T07:11:31.707Z,1014.90
2022-08-29T07:12:31.699Z,1014.83
2022-08-29T07:13:31.701Z,1014.88
2022-08-29T07:14:31.698Z,1014.88
2022-08-29T07:15:31.744Z,1014.93
2022-08-29T07:16:31.682Z,1014.94
2022-08-29T07:17:31.728Z,1014.93
2022-08-29T07:18:31.686Z,1014.89
2022-08-29T07:19:31.687Z,1014.95
2022-08-29T07:20:31.685Z,1014.96
2022-08-29T07:21:31.701Z,1014.96
2022-08-29T07:22:31.690Z,1015.01
2022-08-29T07:23:31.691Z,1014.97
2022-08-29T07:24:31.698Z,1014.95
2022-08-29T07:25:31.716Z,1015.01
2022-08-29T07:26:31.715Z,1014.95
2022-08-29T07:27:31.716Z,1015.00
2022-08-29T07:28:33.976Z,1015.00
2022-08-29T07:29:31.753Z,1015.01
2022-08-29T07:30:31.766Z,1014.98
2022-08-29T07:31:31.772Z,1014.99
2022-08-29T07:32:31.744Z,1015.02
2022-08-29T07:33:31.769Z,1015.03
2022-08-29T07:34:31.762Z,1015.01
2022-08-29T07:35:31.727Z,1015.00
2022-08-29T07:36:31.738Z,1014.99
2022-08-29T07:37:31.733Z,1014.97
2022-08-29T07:38:31.766Z,1014.98
2022-08-29T07:39:31.748Z,1014.98
2022-08-29T07:40:31.834Z,1015.02
2022-08-29T07:41:31.740Z,1015.01
2022-08-29T07:42:31.738Z,1015.03
2022-08-29T07:43:31.984Z,1015.05
2022-08-29T07:44:33.160Z,1015.01
2022-08-29T07:45:31.756Z,1015.03
2022-08-29T07:46:31.803Z,1015.00
2022-08-29T07:47:31.736Z,1015.03
2022-08-29T07:48:31.784Z,1015.05
2022-08-29T07:49:40.568Z,1015.06
2022-08-29T07:50:31.756Z,1015.14
2022-08-29T07:51:31.772Z,1015.13
2022-08-29T07:52:31.765Z,1015.09
2022-08-29T07:53:31.772Z,1015.10
2022-08-29T07:54:31.760Z,1015.10
2022-08-29T07:55:31.770Z,1015.14
2022-08-29T07:56:35.839Z,1015.16
2022-08-29T07:57:31.790Z,1015.17
2022-08-29T07:58:31.790Z,1015.15
2022-08-29T07:59:31.764Z,1015.17
2022-08-29T08:00:31.771Z,1015.17
2022-08-29T08:01:31.882Z,1015.15
2022-08-29T08:02:31.831Z,1015.20
2022-08-29T08:03:31.771Z,1015.19
2022-08-29T08:04:31.804Z,1015.25
2022-08-29T08:05:31.800Z,1015.20
2022-08-29T08:06:31.802Z,1015.23
2022-08-29T08:07:31.818Z,1015.20
2022-08-29T08:08:31.830Z,1015.22
2022-08-29T08:09:31.791Z,1015.24
2022-08-29T08:10:31.823Z,1015.24
2022-08-29T08:11:31.846Z,1015.24
2022-08-29T08:12:31.805Z,1015.28
2022-08-29T08:13:31.819Z,1015.29
2022-08-29T08:14:34.613Z,1015.28
2022-08-29T08:15:31.797Z,1015.32
2022-08-29T08:16:31.837Z,1015.27
2022-08-29T08:17:31.807Z,1015.31
2022-08-29T08:18:31.815Z,1015.29
2022-08-29T08:19:31.834Z,1015.35
2022-08-29T08:20:31.819Z,1015.35
2022-08-29T08:21:31.809Z,1015.33
2022-08-29T08:22:31.811Z,1015.33
2022-08-29T08:23:31.817Z,1015.29
2022-08-29T08:24:31.825Z,1015.35
2022-08-29T08:25:39.370Z,1015.32
2022-08-29T08:26:31.840Z,1015.35
2022-08-29T08:27:31.840Z,1015.31
2022-08-29T08:28:39.885Z,1015.32
2022-08-29T08:29:31.827Z,1015.35
2022-08-29T08:30:35.528Z,1015.35
2022-08-29T08:31:31.901Z,1015.34
2022-08-29T08:32:32.340Z,1015.34
2022-08-29T08:33:35.152Z,1015.38
2022-08-29T08:34:35.615Z,1015.38
2022-08-29T08:35:31.840Z,1015.36
2022-08-29T08:36:31.865Z,1015.41
2022-08-29T08:37:31.851Z,1015.36
2022-08-29T08:38:31.892Z,1015.41
2022-08-29T08:39:31.896Z,1015.45
2022-08-29T08:40:39.456Z,1015.43
2022-08-29T08:41:40.957Z,1015.44
2022-08-29T08:44:11.200Z,1015.44
2022-08-29T08:45:19.383Z,1015.46
2022-08-29T08:46:11.270Z,1015.40
2022-08-29T08:47:11.203Z,1015.40
2022-08-29T08:48:11.219Z,1015.45
2022-08-29T08:49:11.199Z,1015.42
2022-08-29T08:50:11.229Z,1015.41
2022-08-29T08:51:20.437Z,1015.42
2022-08-29T08:52:11.236Z,1015.40
2022-08-29T08:53:11.234Z,1015.38
2022-08-29T08:54:18.768Z,1015.41
2022-08-29T08:55:11.204Z,1015.40
2022-08-29T08:56:11.229Z,1015.42
2022-08-29T08:57:11.215Z,1015.44
2022-08-29T08:58:11.344Z,1015.45
2022-08-29T08:59:18.765Z,1015.43
2022-08-29T09:00:19.598Z,1015.49
2022-08-29T09:01:11.276Z,1015.50
2022-08-29T09:02:19.816Z,1015.49
2022-08-29T09:03:11.240Z,1015.47
2022-08-29T09:04:18.783Z,1015.49
2022-08-29T09:05:11.240Z,1015.49
2022-08-29T09:06:19.632Z,1015.48
2022-08-29T09:07:11.238Z,1015.50
2022-08-29T09:08:11.246Z,1015.45
2022-08-29T09:09:12.061Z,1015.50
2022-08-29T09:10:11.242Z,1015.51
2022-08-29T09:11:11.237Z,1015.50
2022-08-29T09:12:11.258Z,1015.48
2022-08-29T09:13:19.658Z,1015.50
2022-08-29T09:14:11.263Z,1015.48
2022-08-29T09:15:13.863Z,1015.46
2022-08-29T09:16:19.226Z,1015.49
2022-08-29T09:17:11.256Z,1015.46
2022-08-29T09:18:13.525Z,1015.49
2022-08-29T09:19:19.725Z,1015.50
2022-08-29T09:20:11.287Z,1015.50
2022-08-29T09:21:37.126Z,1015.53
2022-08-29T09:22:11.281Z,1015.53
2022-08-29T09:23:11.306Z,1015.52
2022-08-29T09:24:11.282Z,1015.55
2022-08-29T09:25:11.310Z,1015.53
2022-08-29T09:26:11.286Z,1015.59
2022-08-29T09:27:11.279Z,1015.54
2022-08-29T09:28:11.272Z,1015.57
2022-08-29T09:29:11.287Z,1015.55
2022-08-29T09:30:11.289Z,1015.53
2022-08-29T09:31:18.916Z,1015.60
2022-08-29T09:32:11.365Z,1015.53
2022-08-29T09:33:19.803Z,1015.57
2022-08-29T09:34:12.298Z,1015.59
2022-08-29T09:35:11.320Z,1015.57
2022-08-29T09:36:11.315Z,1015.55
2022-08-29T09:37:11.314Z,1015.53
2022-08-29T09:38:11.325Z,1015.55
2022-08-29T09:39:11.322Z,1015.54
2022-08-29T09:40:11.372Z,1015.52
2022-08-29T09:41:11.371Z,1015.52
2022-08-29T09:42:11.316Z,1015.53
2022-08-29T09:43:11.368Z,1015.54
2022-08-29T09:44:11.313Z,1015.52
2022-08-29T09:45:11.330Z,1015.48
2022-08-29T09:46:11.414Z,1015.51
2022-08-29T09:47:11.331Z,1015.50
2022-08-29T09:48:11.352Z,1015.54
2022-08-29T09:49:11.335Z,1015.53
2022-08-29T09:50:11.351Z,1015.45
2022-08-29T09:51:11.344Z,1015.52
2022-08-29T09:52:11.354Z,1015.50
2022-08-29T09:53:24.417Z,1015.48
2022-08-29T09:54:11.379Z,1015.45
2022-08-29T09:55:11.369Z,1015.48
2022-08-29T09:56:11.353Z,1015.46
2022-08-29T09:57:11.354Z,1015.50
2022-08-29T09:58:11.355Z,1015.50
2022-08-29T09:59:11.386Z,1015.47
2022-08-29T10:00:11.369Z,1015.53
2022-08-29T10:01:11.698Z,1015.50
2022-08-29T10:02:11.443Z,1015.53
2022-08-29T10:03:11.417Z,1015.54
2022-08-29T10:04:11.376Z,1015.56
2022-08-29T10:05:13.186Z,1015.58
2022-08-29T10:06:11.378Z,1015.57
2022-08-29T10:07:11.384Z,1015.63
2022-08-29T10:08:11.407Z,1015.56
2022-08-29T10:09:11.447Z,1015.59
2022-08-29T10:10:11.410Z,1015.64
2022-08-29T10:11:11.396Z,1015.59
2022-08-29T10:12:11.398Z,1015.63
2022-08-29T10:13:11.492Z,1015.58
2022-08-29T10:14:12.441Z,1015.57
2022-08-29T10:15:23.467Z,1015.58
2022-08-29T10:16:11.441Z,1015.58
2022-08-29T10:17:12.314Z,1015.61
2022-08-29T10:18:11.431Z,1015.58
2022-08-29T10:19:11.427Z,1015.59
2022-08-29T10:20:11.449Z,1015.60
2022-08-29T10:21:11.436Z,1015.63
2022-08-29T10:22:11.493Z,1015.57
2022-08-29T10:23:11.469Z,1015.60
2022-08-29T10:24:14.625Z,1015.59
2022-08-29T10:25:19.852Z,1015.57
2022-08-29T10:26:18.995Z,1015.63
2022-08-29T10:27:18.988Z,1015.58
2022-08-29T10:28:11.449Z,1015.61
2022-08-29T10:29:11.457Z,1015.62
2022-08-29T10:30:19.035Z,1015.66
2022-08-29T10:31:19.569Z,1015.61
2022-08-29T10:32:11.469Z,1015.59
2022-08-29T10:33:11.540Z,1015.63
2022-08-29T10:34:11.458Z,1015.64
2022-08-29T10:35:11.473Z,1015.61
2022-08-29T10:36:11.481Z,1015.62
2022-08-29T10:37:11.502Z,1015.64
2022-08-29T10:38:11.517Z,1015.68
2022-08-29T10:39:11.521Z,1015.71
2022-08-29T10:40:11.504Z,1015.72
2022-08-29T10:41:11.479Z,1015.73
2022-08-29T10:42:11.496Z,1015.71
2022-08-29T10:43:11.577Z,1015.71
2022-08-29T10:44:11.539Z,1015.73
2022-08-29T10:45:11.546Z,1015.73
2022-08-29T10:46:11.606Z,1015.74
2022-08-29T10:47:11.508Z,1015.74
2022-08-29T10:48:11.540Z,1015.73
2022-08-29T10:49:11.523Z,1015.73
2022-08-29T10:50:21.875Z,1015.71
2022-08-29T10:51:11.509Z,1015.72
2022-08-29T10:52:11.529Z,1015.74
2022-08-29T10:53:11.521Z,1015.73
2022-08-29T10:54:11.532Z,1015.77
2022-08-29T10:55:11.579Z,1015.81
2022-08-29T10:56:11.551Z,1015.75
2022-08-29T10:57:11.531Z,1015.72
2022-08-29T10:58:11.565Z,1015.76
2022-08-29T10:59:11.631Z,1015.71
2022-08-29T11:00:11.547Z,1015.74
2022-08-29T11:01:11.645Z,1015.74
2022-08-29T11:02:11.558Z,1015.69
2022-08-29T11:03:11.711Z,1015.66
2022-08-29T11:04:11.585Z,1015.64
2022-08-29T11:05:11.590Z,1015.80
2022-08-29T11:06:11.644Z,1015.66
2022-08-29T11:07:11.622Z,1015.59
2022-08-29T11:08:15.474Z,1015.65
2022-08-29T11:09:11.583Z,1015.63
2022-08-29T11:10:11.615Z,1015.84
2022-08-29T11:11:11.596Z,1015.64
2022-08-29T11:12:17.357Z,1015.67
2022-08-29T11:13:11.599Z,1015.87
2022-08-29T11:14:11.636Z,1015.69
2022-08-29T11:15:11.596Z,1015.68
2022-08-29T11:16:11.654Z,1015.63
2022-08-29T11:17:11.621Z,1015.64
2022-08-29T11:18:11.669Z,1015.68
2022-08-29T11:19:11.677Z,1015.63
2022-08-29T11:20:11.692Z,1015.62
2022-08-29T11:21:11.703Z,1015.65
2022-08-29T11:22:11.643Z,1015.60
2022-08-29T11:23:11.628Z,1015.60
2022-08-29T11:24:11.647Z,1015.63
2022-08-29T11:25:11.675Z,1015.61
2022-08-29T11:26:11.676Z,1015.58
2022-08-29T11:27:11.677Z,1015.58
2022-08-29T11:28:11.722Z,1015.55
2022-08-29T11:29:11.682Z,1015.54
2022-08-29T11:30:11.726Z,1015.53
2022-08-29T11:31:11.805Z,1015.60
2022-08-29T11:32:11.673Z,1015.57
2022-08-29T11:33:11.772Z,1015.63
2022-08-29T11:34:11.708Z,1015.65
2022-08-29T11:35:11.794Z,1015.64
2022-08-29T11:36:11.711Z,1015.67
2022-08-29T11:37:11.721Z,1015.64
2022-08-29T11:38:11.753Z,1015.63
2022-08-29T11:39:11.735Z,1015.61
2022-08-29T11:40:11.798Z,1015.63
2022-08-29T11:41:28.108Z,1015.62
2022-08-29T11:42:11.821Z,1015.66
2022-08-29T11:43:12.130Z,1015.65
2022-08-29T11:44:11.751Z,1015.64
2022-08-29T11:45:11.771Z,1015.69
2022-08-29T11:46:11.740Z,1015.67
2022-08-29T11:47:11.765Z,1015.73
2022-08-29T11:48:11.818Z,1015.74
2022-08-29T11:49:11.798Z,1015.71
2022-08-29T11:50:12.004Z,1015.67
2022-08-29T11:51:11.770Z,1015.66
2022-08-29T11:52:11.765Z,1015.76
2022-08-29T11:53:11.834Z,1015.71
2022-08-29T11:54:11.787Z,1015.73
2022-08-29T11:55:11.931Z,1015.71
2022-08-29T11:56:11.813Z,1015.74
2022-08-29T11:57:11.793Z,1015.74
2022-08-29T11:58:12.068Z,1015.68
2022-08-29T11:59:11.787Z,1015.72
2022-08-29T12:00:11.817Z,1015.72
2022-08-29T12:01:12.265Z,1015.77
2022-08-29T12:02:11.929Z,1015.72
2022-08-29T12:03:25.196Z,1015.73
2022-08-29T12:04:11.896Z,1015.65
2022-08-29T12:05:11.837Z,1015.76
2022-08-29T12:06:11.834Z,1015.77
2022-08-29T12:07:11.855Z,1015.71
2022-08-29T12:08:35.659Z,1015.73
2022-08-29T12:09:13.912Z,1015.67
2022-08-29T12:10:11.879Z,1015.68
2022-08-29T12:11:11.867Z,1015.69